Time;durP1;ratioP1;P1;durP2;ratioP2;P2;SDS_P1;SDS_P2;PMS_P1;PMS_P2;Temp;Humidity;BMP_temperature;BMP_pressure;BME280_temperature;BME280_humidity;BME280_pressure;Samples;Min_cycle;Max_cycle;Signal;HPM_P1;HPM_P2
2021/06/14 00:01:29;;;;;;;11.88;6.82;;;25.50;52.40;;;;;;4402494;32;20073;-37
2021/06/14 00:03:56;;;;;;;10.82;6.57;;;25.50;52.40;;;;;;4402520;32;20085;-37
2021/06/14 00:06:22;;;;;;;13.13;6.85;;;25.30;52.40;;;;;;4402575;32;20069;-37
2021/06/14 00:08:49;;;;;;;13.05;8.25;;;25.10;52.90;;;;;;4389589;32;20279;-37
2021/06/14 00:11:15;;;;;;;10.68;8.15;;;25.00;53.60;;;;;;4389980;32;20582;-38
2021/06/14 00:13:42;;;;;;;10.18;8.65;;;24.90;54.00;;;;;;4402197;32;20184;-39
2021/06/14 00:16:08;;;;;;;11.75;7.40;;;24.80;54.20;;;;;;4389106;32;20073;-37
2021/06/14 00:18:35;;;;;;;10.38;7.68;;;24.70;54.20;;;;;;4389717;32;20135;-38
2021/06/14 00:21:08;;;;;;;10.55;8.00;;;24.60;54.30;;;;;;4389265;32;20060;-39
2021/06/14 00:23:35;;;;;;;10.38;7.10;;;24.70;54.40;;;;;;4401883;32;20073;-39
2021/06/14 00:26:03;;;;;;;15.82;9.73;;;24.80;54.20;;;;;;4402004;32;20482;-38
2021/06/14 00:28:30;;;;;;;10.68;7.35;;;24.80;54.10;;;;;;4402440;32;20502;-38
2021/06/14 00:30:57;;;;;;;12.90;7.10;;;24.90;53.70;;;;;;4402002;32;20148;-36
2021/06/14 00:33:24;;;;;;;7.72;6.43;;;25.00;53.50;;;;;;4402047;32;20500;-38
2021/06/14 00:35:50;;;;;;;9.18;6.37;;;25.10;53.50;;;;;;4395530;32;20142;-38
2021/06/14 00:38:17;;;;;;;12.75;7.50;;;25.10;53.00;;;;;;4372839;32;20106;-36
2021/06/14 00:40:43;;;;;;;11.73;7.50;;;25.20;53.00;;;;;;4372817;32;20060;-37
2021/06/14 00:43:11;;;;;;;8.45;7.03;;;25.30;52.80;;;;;;4374215;32;20062;-38
2021/06/14 00:45:44;;;;;;;11.07;7.00;;;25.30;52.40;;;;;;4372709;32;20505;-37
2021/06/14 00:48:10;;;;;;;13.25;6.75;;;25.30;52.40;;;;;;4374381;32;20054;-38
2021/06/14 00:50:49;;;;;;;10.35;7.72;;;25.20;52.40;;;;;;4374163;32;20544;-37
2021/06/14 00:53:22;;;;;;;11.55;7.47;;;25.00;52.70;;;;;;4372888;32;20141;-38
2021/06/14 00:55:49;;;;;;;9.85;8.27;;;25.00;53.30;;;;;;4374446;32;20443;-37
2021/06/14 00:58:16;;;;;;;16.98;9.30;;;24.90;53.80;;;;;;4371886;32;20054;-37
2021/06/14 01:00:42;;;;;;;15.20;8.05;;;24.90;54.10;;;;;;4372709;32;20050;-37
2021/06/14 01:03:09;;;;;;;12.90;7.80;;;24.90;54.20;;;;;;4372306;32;20096;-37
2021/06/14 01:05:44;;;;;;;10.45;7.40;;;24.90;54.10;;;;;;4382185;32;20162;-36
2021/06/14 01:08:11;;;;;;;10.95;7.03;;;25.10;53.70;;;;;;4389211;32;20081;-38
2021/06/14 01:10:38;;;;;;;15.32;9.93;;;25.30;53.40;;;;;;4374545;32;20098;-38
2021/06/14 01:13:52;;;;;;;20.10;10.73;;;25.50;53.20;;;;;;4389101;32;20533;-37
2021/06/14 01:16:35;;;;;;;14.90;10.90;;;25.60;52.80;;;;;;4376345;32;20111;-38
2021/06/14 01:19:09;;;;;;;17.65;9.90;;;25.70;52.50;;;;;;4375088;32;20605;-38
2021/06/14 01:22:08;;;;;;;18.50;9.03;;;25.80;52.40;;;;;;4375074;32;20519;-38
2021/06/14 01:25:38;;;;;;;20.15;10.82;;;26.00;52.10;;;;;;4368733;32;20061;-38
2021/06/14 01:28:05;;;;;;;12.98;9.05;;;26.20;51.70;;;;;;4311885;33;20079;-38
2021/06/14 01:30:33;;;;;;;17.73;10.00;;;26.20;51.10;;;;;;4299866;33;20083;-38
2021/06/14 01:33:00;;;;;;;13.32;8.77;;;26.20;51.30;;;;;;4287550;33;20079;-38
2021/06/14 01:35:50;;;;;;;14.38;11.73;;;26.20;51.30;;;;;;4312361;33;20063;-38
2021/06/14 01:38:18;;;;;;;15.40;12.00;;;26.20;51.10;;;;;;4311981;33;20087;-39
2021/06/14 01:40:45;;;;;;;16.67;11.27;;;26.30;50.90;;;;;;4311655;33;20066;-38
2021/06/14 01:43:14;;;;;;;17.00;10.55;;;26.20;50.60;;;;;;4284757;33;20154;-38
2021/06/14 01:45:46;;;;;;;20.15;11.07;;;26.10;50.70;;;;;;4285590;33;20068;-37
2021/06/14 01:48:12;;;;;;;18.08;12.25;;;26.00;51.00;;;;;;4279286;33;20511;-38
2021/06/14 01:50:39;;;;;;;15.18;11.38;;;25.90;51.30;;;;;;4311483;33;20077;-38
2021/06/14 01:53:05;;;;;;;11.82;10.32;;;25.90;51.70;;;;;;4275690;33;20067;-37
2021/06/14 01:55:32;;;;;;;21.45;11.98;;;26.00;52.00;;;;;;4287646;33;20063;-36
2021/06/14 01:57:59;;;;;;;20.27;11.75;;;26.10;51.90;;;;;;4296106;32;20081;-37
2021/06/14 02:00:26;;;;;;;26.45;11.77;;;26.30;51.80;;;;;;4370324;32;20189;-37
2021/06/14 02:02:52;;;;;;;20.15;10.88;;;26.50;51.50;;;;;;4370349;32;20137;-38
2021/06/14 02:05:21;;;;;;;23.85;12.30;;;26.80;51.10;;;;;;4370442;32;20151;-38
2021/06/14 02:07:48;;;;;;;16.45;11.57;;;27.00;50.40;;;;;;4370829;32;20073;-37
2021/06/14 02:10:14;;;;;;;15.60;10.90;;;27.20;50.00;;;;;;4357703;32;20078;-37
2021/06/14 02:12:42;;;;;;;13.65;9.85;;;27.30;49.80;;;;;;4370403;32;20073;-37
2021/06/14 02:15:10;;;;;;;14.18;9.68;;;27.60;49.70;;;;;;4358034;32;20073;-36
2021/06/14 02:17:37;;;;;;;24.45;12.02;;;27.90;49.00;;;;;;4370546;32;20151;-39
2021/06/14 02:20:09;;;;;;;15.95;11.27;;;28.00;48.80;;;;;;4374769;32;20164;-35
2021/06/14 02:22:36;;;;;;;15.93;9.98;;;28.20;48.70;;;;;;4374016;32;20077;-37
2021/06/14 02:25:05;;;;;;;21.62;10.38;;;28.50;48.30;;;;;;4387603;32;20066;-37
2021/06/14 02:27:32;;;;;;;23.02;10.85;;;28.90;47.80;;;;;;4374277;32;20087;-37
2021/06/14 02:29:58;;;;;;;21.60;10.45;;;29.30;47.00;;;;;;4388055;32;20054;-37
2021/06/14 02:32:26;;;;;;;16.52;9.75;;;29.70;46.20;;;;;;4374043;32;20101;-37
2021/06/14 02:34:53;;;;;;;17.37;11.55;;;29.90;45.50;;;;;;4387891;32;20473;-37
2021/06/14 02:37:21;;;;;;;14.35;9.85;;;30.00;45.20;;;;;;4373815;32;20519;-37
2021/06/14 02:39:48;;;;;;;15.55;10.40;;;30.10;45.60;;;;;;4387732;32;20058;-36
2021/06/14 02:42:17;;;;;;;18.58;10.38;;;30.40;45.30;;;;;;4373941;32;20451;-36
2021/06/14 02:44:43;;;;;;;17.17;10.52;;;30.90;44.90;;;;;;4387906;32;20153;-36
2021/06/14 02:47:12;;;;;;;15.55;9.70;;;31.30;43.90;;;;;;4373696;32;20092;-36
2021/06/14 02:49:38;;;;;;;15.43;11.02;;;31.50;43.00;;;;;;4386312;32;20096;-37
2021/06/14 02:52:08;;;;;;;19.87;11.02;;;31.70;42.60;;;;;;4373709;32;20090;-36
2021/06/14 02:54:43;;;;;;;14.70;11.05;;;31.80;42.50;;;;;;4374120;32;20089;-37
2021/06/14 02:57:11;;;;;;;12.07;10.55;;;31.80;42.20;;;;;;4362007;32;20071;-38
2021/06/14 02:59:40;;;;;;;14.40;11.07;;;31.80;42.10;;;;;;4387642;32;20062;-38
2021/06/14 03:02:06;;;;;;;17.17;11.57;;;31.80;42.30;;;;;;4385903;32;20082;-37
2021/06/14 03:04:33;;;;;;;16.40;11.27;;;31.80;42.10;;;;;;4386349;32;20074;-38
2021/06/14 03:06:59;;;;;;;18.67;12.45;;;31.70;42.00;;;;;;4373862;32;20089;-38
2021/06/14 03:09:27;;;;;;;19.12;13.30;;;31.60;42.10;;;;;;4373902;32;20164;-38
2021/06/14 03:11:54;;;;;;;15.18;12.85;;;31.50;42.20;;;;;;4361391;32;20069;-38
2021/06/14 03:14:21;;;;;;;19.80;14.98;;;31.40;42.30;;;;;;4387692;32;20162;-43
2021/06/14 03:16:47;;;;;;;21.70;14.45;;;31.30;42.10;;;;;;4361975;32;20061;-38
2021/06/14 03:19:14;;;;;;;19.48;14.10;;;31.10;42.10;;;;;;4373835;32;20466;-38
2021/06/14 03:21:41;;;;;;;22.27;14.25;;;31.00;42.50;;;;;;4374712;32;20070;-38
2021/06/14 03:24:08;;;;;;;18.52;13.02;;;30.80;42.90;;;;;;4376016;32;20062;-37
2021/06/14 03:26:38;;;;;;;17.48;12.32;;;30.70;43.30;;;;;;4376220;32;20161;-38
2021/06/14 03:29:07;;;;;;;21.92;11.75;;;30.60;43.70;;;;;;4390615;32;20058;-38
2021/06/14 03:31:33;;;;;;;18.37;13.75;;;30.60;43.90;;;;;;4390645;32;20058;-39
2021/06/14 03:34:00;;;;;;;17.65;13.15;;;30.50;44.10;;;;;;4376290;32;20506;-38
2021/06/14 03:36:30;;;;;;;22.52;15.23;;;30.50;44.00;;;;;;4363767;32;20167;-38
2021/06/14 03:38:57;;;;;;;23.87;16.05;;;30.50;43.90;;;;;;4389830;32;20195;-39
2021/06/14 03:41:24;;;;;;;23.23;16.30;;;30.50;43.80;;;;;;4376076;32;20518;-37
2021/06/14 03:43:50;;;;;;;18.67;15.73;;;30.50;44.10;;;;;;4390256;32;20167;-39
2021/06/14 03:46:17;;;;;;;21.85;16.65;;;30.40;44.90;;;;;;4375688;32;20525;-39
2021/06/14 03:48:45;;;;;;;27.65;19.25;;;30.50;44.30;;;;;;4390207;32;20169;-38
2021/06/14 03:51:13;;;;;;;26.02;15.40;;;30.40;44.40;;;;;;4388197;32;20061;-38
2021/06/14 03:53:39;;;;;;;25.73;16.87;;;30.50;44.50;;;;;;4390028;32;20090;-37
2021/06/14 03:56:08;;;;;;;21.85;17.25;;;30.60;44.60;;;;;;4390262;32;20456;-38
2021/06/14 03:58:35;;;;;;;27.67;18.12;;;30.70;44.30;;;;;;4390130;32;20077;-39
2021/06/14 04:01:02;;;;;;;22.35;16.45;;;30.90;44.50;;;;;;4389600;32;20081;-38
2021/06/14 04:03:29;;;;;;;23.10;18.80;;;31.00;44.20;;;;;;4390131;32;20097;-39
2021/06/14 04:05:58;;;;;;;28.33;19.08;;;31.10;44.00;;;;;;4388203;32;20081;-38
2021/06/14 04:08:24;;;;;;;17.58;15.48;;;31.30;44.10;;;;;;4388064;32;20070;-37
2021/06/14 04:10:51;;;;;;;26.00;17.67;;;31.50;43.40;;;;;;4389933;32;20564;-39
2021/06/14 04:13:17;;;;;;;23.15;17.42;;;31.70;42.90;;;;;;4389804;32;20065;-37
2021/06/14 04:15:44;;;;;;;23.20;18.73;;;31.60;42.80;;;;;;4388435;32;20069;-37
2021/06/14 04:18:10;;;;;;;18.17;14.87;;;31.60;43.20;;;;;;4389386;32;20066;-36
2021/06/14 04:20:37;;;;;;;18.52;14.07;;;31.70;43.00;;;;;;4389764;32;20522;-38
2021/06/14 04:23:04;;;;;;;13.07;10.15;;;31.80;43.00;;;;;;4371919;32;20120;-38
2021/06/14 04:25:31;;;;;;;18.85;10.32;;;31.80;42.30;;;;;;4359666;32;20074;-38
2021/06/14 04:27:57;;;;;;;19.70;11.63;;;31.80;42.60;;;;;;4359248;32;20502;-37
2021/06/14 04:30:24;;;;;;;11.35;9.02;;;31.70;43.00;;;;;;4359595;32;20062;-38
2021/06/14 04:32:50;;;;;;;15.90;9.02;;;31.70;42.70;;;;;;4340594;32;20539;-38
2021/06/14 04:35:17;;;;;;;11.30;7.47;;;31.70;42.90;;;;;;4341966;33;20071;-38
2021/06/14 04:37:43;;;;;;;9.32;7.62;;;31.70;42.60;;;;;;4341608;33;20601;-39
2021/06/14 04:40:10;;;;;;;5.75;4.80;;;31.70;42.80;;;;;;4342030;33;20763;-38
2021/06/14 04:42:37;;;;;;;6.32;4.30;;;31.70;42.70;;;;;;4342389;33;20070;-37
2021/06/14 04:45:04;;;;;;;5.18;4.68;;;31.70;42.40;;;;;;4341721;33;20067;-39
2021/06/14 04:47:30;;;;;;;7.85;5.30;;;31.70;42.90;;;;;;4341611;33;20106;-38
2021/06/14 04:49:59;;;;;;;9.32;6.15;;;31.70;42.70;;;;;;4341691;33;20150;-39
2021/06/14 04:52:25;;;;;;;5.95;4.57;;;31.90;42.90;;;;;;4341526;33;20577;-39
2021/06/14 04:54:52;;;;;;;5.68;4.37;;;32.00;42.40;;;;;;4356948;32;20142;-38
2021/06/14 04:57:18;;;;;;;6.35;3.87;;;32.10;41.80;;;;;;4358703;32;20120;-38
2021/06/14 04:59:45;;;;;;;6.20;4.47;;;32.20;41.50;;;;;;4371485;32;20152;-38
2021/06/14 05:02:11;;;;;;;5.47;4.50;;;32.30;41.30;;;;;;4371578;32;20070;-38
2021/06/14 05:04:38;;;;;;;6.18;3.50;;;32.30;41.20;;;;;;4371262;32;20130;-38
2021/06/14 05:07:04;;;;;;;5.70;4.05;;;32.30;41.50;;;;;;4371191;32;20177;-37
2021/06/14 05:09:31;;;;;;;5.57;3.80;;;32.30;41.20;;;;;;4374446;32;20691;-37
2021/06/14 05:11:57;;;;;;;6.43;3.42;;;32.40;40.80;;;;;;4388547;32;20141;-38
2021/06/14 05:14:24;;;;;;;6.35;3.83;;;32.50;40.70;;;;;;4387470;32;20060;-37
2021/06/14 05:16:50;;;;;;;5.65;3.85;;;32.60;40.50;;;;;;4388858;32;20461;-38
2021/06/14 05:19:17;;;;;;;10.27;3.60;;;32.70;40.40;;;;;;4389131;32;20163;-37
2021/06/14 05:21:43;;;;;;;7.45;3.53;;;32.90;40.40;;;;;;4387263;32;20170;-37
2021/06/14 05:24:10;;;;;;;4.30;2.22;;;32.90;39.80;;;;;;4388853;32;20080;-39
2021/06/14 05:26:36;;;;;;;5.60;3.53;;;32.80;39.60;;;;;;4388299;32;20476;-39
2021/06/14 05:29:03;;;;;;;4.53;2.83;;;32.80;39.50;;;;;;4388813;32;20182;-41
2021/06/14 05:31:29;;;;;;;3.15;1.33;;;32.90;39.20;;;;;;4388775;32;20230;-39
2021/06/14 05:33:56;;;;;;;6.75;2.42;;;33.00;39.00;;;;;;4387198;32;20061;-39
2021/06/14 05:36:22;;;;;;;3.58;2.87;;;33.10;38.90;;;;;;4388314;32;20133;-39
2021/06/14 05:38:49;;;;;;;9.55;2.75;;;33.10;38.50;;;;;;4374236;32;20069;-40
2021/06/14 05:41:15;;;;;;;3.62;2.00;;;33.30;38.40;;;;;;4388287;32;20477;-39
2021/06/14 05:43:41;;;;;;;3.45;1.70;;;33.30;38.80;;;;;;4386833;32;20073;-39
2021/06/14 05:46:08;;;;;;;1.75;0.60;;;33.30;37.90;;;;;;4388116;32;20088;-39
2021/06/14 05:48:35;;;;;;;5.35;1.77;;;33.30;37.50;;;;;;4396531;32;20109;-39
2021/06/14 05:51:01;;;;;;;3.15;1.17;;;33.20;37.10;;;;;;4403026;32;20085;-38
2021/06/14 05:53:27;;;;;;;2.20;0.47;;;33.20;36.70;;;;;;4389271;32;20157;-38
2021/06/14 05:55:54;;;;;;;0.88;0.47;;;33.20;36.70;;;;;;4403050;32;20079;-38
2021/06/14 05:58:20;;;;;;;1.12;0.82;;;33.10;36.00;;;;;;4388859;32;20548;-38
2021/06/14 06:00:47;;;;;;;2.37;1.37;;;33.10;36.20;;;;;;4403228;32;20077;-39
2021/06/14 06:03:13;;;;;;;1.67;0.95;;;33.00;36.30;;;;;;4388997;32;20073;-39
2021/06/14 06:05:40;;;;;;;0.62;0.40;;;33.00;36.80;;;;;;4402913;32;20073;-37
2021/06/14 06:08:06;;;;;;;0.57;0.30;;;33.00;37.10;;;;;;4403097;32;20197;-37
2021/06/14 06:10:33;;;;;;;1.73;1.02;;;33.00;37.00;;;;;;4402932;32;20061;-39
2021/06/14 06:13:01;;;;;;;3.62;0.90;;;33.10;37.40;;;;;;4403153;32;20071;-39
2021/06/14 06:15:27;;;;;;;3.42;0.90;;;33.10;37.00;;;;;;4402927;32;20500;-39
2021/06/14 06:17:56;;;;;;;2.05;0.70;;;33.30;37.50;;;;;;4389228;32;20085;-40
2021/06/14 06:20:23;;;;;;;2.58;0.77;;;33.30;35.70;;;;;;4402937;32;20081;-40
2021/06/14 06:22:49;;;;;;;1.25;0.70;;;33.20;35.10;;;;;;4388960;32;20057;-39
2021/06/14 06:25:18;;;;;;;0.73;0.50;;;33.20;36.20;;;;;;4403265;32;20521;-37
2021/06/14 06:27:47;;;;;;;1.25;0.45;;;33.30;35.50;;;;;;4403017;32;20172;-38
2021/06/14 06:30:16;;;;;;;1.87;1.33;;;33.20;35.50;;;;;;4403414;32;20085;-38
2021/06/14 06:32:43;;;;;;;2.12;1.10;;;33.30;36.30;;;;;;4402828;32;20137;-38
2021/06/14 06:35:10;;;;;;;2.22;0.50;;;33.40;36.10;;;;;;4402776;32;20176;-38
2021/06/14 06:37:37;;;;;;;1.87;0.93;;;33.40;36.70;;;;;;4402940;32;20100;-38
2021/06/14 06:40:07;;;;;;;1.95;1.08;;;33.40;36.70;;;;;;4402861;32;20085;-37
2021/06/14 06:42:36;;;;;;;1.45;0.60;;;33.50;36.30;;;;;;4402983;32;20087;-39
2021/06/14 06:45:04;;;;;;;3.28;1.35;;;33.50;36.70;;;;;;4388949;32;20081;-39
2021/06/14 06:47:31;;;;;;;1.67;1.00;;;33.50;36.50;;;;;;4400975;32;20077;-39
2021/06/14 06:49:57;;;;;;;1.98;0.40;;;33.70;36.30;;;;;;4387806;32;20058;-38
2021/06/14 06:52:24;;;;;;;2.72;1.08;;;33.80;36.30;;;;;;4386247;32;20054;-39
2021/06/14 06:54:50;;;;;;;0.82;0.57;;;33.80;35.30;;;;;;4386113;32;20073;-38
2021/06/14 06:57:17;;;;;;;1.00;0.60;;;33.90;35.30;;;;;;4389946;32;20120;-38
2021/06/14 06:59:44;;;;;;;1.02;0.52;;;33.90;34.70;;;;;;4391238;32;20068;-38
2021/06/14 07:02:10;;;;;;;0.68;0.50;;;33.80;33.50;;;;;;4390442;32;20598;-39
2021/06/14 07:04:37;;;;;;;0.80;0.43;;;33.80;34.20;;;;;;4390242;32;20112;-39
2021/06/14 07:07:05;;;;;;;1.20;0.88;;;33.80;34.50;;;;;;4389099;32;20069;-38
2021/06/14 07:09:32;;;;;;;2.55;0.82;;;33.90;35.00;;;;;;4390643;32;20062;-39
2021/06/14 07:11:58;;;;;;;1.00;0.60;;;34.10;34.20;;;;;;4390842;32;20046;-39
2021/06/14 07:14:25;;;;;;;0.55;0.50;;;34.20;33.30;;;;;;4390186;32;20066;-40
2021/06/14 07:16:52;;;;;;;2.00;0.70;;;34.20;32.90;;;;;;4390371;32;20558;-39
2021/06/14 07:19:18;;;;;;;0.50;0.30;;;34.20;32.90;;;;;;4390665;32;20077;-39
2021/06/14 07:21:45;;;;;;;2.12;1.00;;;34.20;33.50;;;;;;4390813;32;20058;-40
2021/06/14 07:24:11;;;;;;;1.05;0.88;;;34.30;34.30;;;;;;4390590;32;20141;-38
2021/06/14 07:26:38;;;;;;;1.08;0.60;;;34.30;34.10;;;;;;4390550;32;20653;-39
2021/06/14 07:29:04;;;;;;;0.90;0.70;;;34.30;33.10;;;;;;4388963;32;20176;-40
2021/06/14 07:31:31;;;;;;;0.75;0.73;;;34.30;33.50;;;;;;4389983;32;20500;-40
2021/06/14 07:34:00;;;;;;;6.68;1.20;;;34.20;33.60;;;;;;4390145;32;20077;-39
2021/06/14 07:36:27;;;;;;;1.70;1.10;;;34.30;34.30;;;;;;4388772;32;20150;-38
2021/06/14 07:38:54;;;;;;;4.97;0.68;;;34.40;34.40;;;;;;4388525;32;20637;-39
2021/06/14 07:41:20;;;;;;;2.95;0.80;;;34.50;34.10;;;;;;4390344;32;20145;-39
2021/06/14 07:43:47;;;;;;;4.32;0.80;;;34.50;33.60;;;;;;4388869;32;20066;-40
2021/06/14 07:46:13;;;;;;;0.50;0.43;;;34.40;33.50;;;;;;4389805;32;20054;-38
2021/06/14 07:48:40;;;;;;;1.60;0.40;;;34.50;33.70;;;;;;4387991;32;20073;-38
2021/06/14 07:51:07;;;;;;;1.50;0.77;;;34.50;33.20;;;;;;4356966;32;20063;-39
2021/06/14 07:53:34;;;;;;;0.85;0.70;;;34.60;33.60;;;;;;4357398;32;20054;-39
2021/06/14 07:56:00;;;;;;;2.33;0.70;;;34.60;33.00;;;;;;4357261;32;20600;-37
2021/06/14 07:58:27;;;;;;;0.50;0.45;;;34.80;33.70;;;;;;4357228;32;20167;-37
2021/06/14 08:00:53;;;;;;;2.20;0.82;;;34.80;33.00;;;;;;4357242;32;20101;-37
2021/06/14 08:03:24;;;;;;;0.70;0.57;;;35.10;32.90;;;;;;4345444;32;20093;-38
2021/06/14 08:05:51;;;;;;;0.77;0.70;;;35.20;32.00;;;;;;4356898;32;20176;-39
2021/06/14 08:08:18;;;;;;;0.60;0.45;;;35.30;31.90;;;;;;4343903;32;20160;-37
2021/06/14 08:10:45;;;;;;;0.82;0.70;;;35.20;31.50;;;;;;4356768;32;20061;-38
2021/06/14 08:13:12;;;;;;;0.62;0.40;;;35.10;32.00;;;;;;4356963;32;20465;-38
2021/06/14 08:15:39;;;;;;;2.85;0.68;;;35.10;32.00;;;;;;4344628;32;20179;-38
2021/06/14 08:18:25;;;;;;;0.40;0.30;;;35.00;32.40;;;;;;4344928;32;20570;-38
2021/06/14 08:26:27;;;;;;;1.98;0.60;;;34.90;32.30;;;;;;4341741;33;20589;-38
2021/06/14 08:28:56;;;;;;;0.50;0.40;;;34.70;32.60;;;;;;4360175;32;20487;-37
2021/06/14 08:31:23;;;;;;;0.98;0.75;;;34.70;32.50;;;;;;4371622;32;20069;-38
2021/06/14 08:33:50;;;;;;;5.50;0.52;;;34.80;33.40;;;;;;4371831;32;20187;-39
2021/06/14 08:36:16;;;;;;;3.33;0.93;;;34.70;32.70;;;;;;4371758;32;20090;-38
2021/06/14 08:38:43;;;;;;;1.42;0.73;;;34.70;32.90;;;;;;4359090;32;20065;-37
2021/06/14 08:41:09;;;;;;;1.12;0.47;;;34.60;33.00;;;;;;4372144;32;20062;-37
2021/06/14 08:43:36;;;;;;;3.33;1.15;;;34.60;33.10;;;;;;4359232;32;20139;-38
2021/06/14 08:46:02;;;;;;;5.55;1.05;;;34.70;33.70;;;;;;4346775;32;20070;-39
2021/06/14 08:48:30;;;;;;;0.60;0.50;;;34.70;33.30;;;;;;4370983;32;20217;-40
2021/06/14 08:50:56;;;;;;;1.02;0.70;;;34.80;33.00;;;;;;4359415;32;20081;-38
2021/06/14 08:53:23;;;;;;;1.65;0.20;;;34.90;33.30;;;;;;4359483;32;20245;-38
2021/06/14 08:55:50;;;;;;;1.60;0.80;;;35.00;32.80;;;;;;4346895;32;20649;-38
2021/06/14 08:58:16;;;;;;;2.33;0.52;;;35.00;32.50;;;;;;4386926;32;20145;-38
2021/06/14 09:00:43;;;;;;;2.87;0.62;;;35.10;32.40;;;;;;4403709;32;20173;-38
2021/06/14 09:03:09;;;;;;;0.95;0.85;;;35.10;32.60;;;;;;4358309;32;20076;-38
2021/06/14 09:05:35;;;;;;;1.12;0.60;;;35.00;32.60;;;;;;4370722;32;20212;-38
2021/06/14 09:08:06;;;;;;;0.77;0.57;;;35.10;32.70;;;;;;4370908;32;20121;-38
2021/06/14 09:10:38;;;;;;;1.48;0.75;;;35.10;32.50;;;;;;4358805;32;20153;-38
2021/06/14 09:13:14;;;;;;;3.42;0.77;;;35.20;32.60;;;;;;4370940;32;20082;-38
2021/06/14 09:15:42;;;;;;;2.62;0.60;;;35.20;32.50;;;;;;4370960;32;20163;-39
2021/06/14 09:18:27;;;;;;;0.85;0.52;;;35.20;32.60;;;;;;4370935;32;20063;-38
2021/06/14 09:21:07;;;;;;;0.50;0.47;;;35.10;32.60;;;;;;4370934;32;20065;-38
2021/06/14 09:23:48;;;;;;;1.08;0.57;;;35.00;32.50;;;;;;4371148;32;20491;-38
2021/06/14 09:26:38;;;;;;;3.35;0.90;;;34.90;33.00;;;;;;4370882;32;20066;-39
2021/06/14 09:29:10;;;;;;;1.73;0.60;;;35.00;33.20;;;;;;4370467;32;20202;-37
2021/06/14 09:31:41;;;;;;;0.60;0.52;;;35.10;33.20;;;;;;4371009;32;20066;-38
2021/06/14 09:34:11;;;;;;;2.90;0.70;;;35.10;33.00;;;;;;4358375;32;20275;-38
2021/06/14 09:36:38;;;;;;;1.02;0.60;;;35.10;33.10;;;;;;4358731;32;20562;-37
2021/06/14 09:39:14;;;;;;;4.18;0.90;;;35.00;32.90;;;;;;4333531;32;20089;-38
2021/06/14 09:41:51;;;;;;;1.75;0.82;;;35.10;33.10;;;;;;4387498;32;20045;-39
2021/06/14 09:44:28;;;;;;;1.27;0.57;;;35.30;33.20;;;;;;4370540;32;20204;-38
2021/06/14 09:47:10;;;;;;;2.90;0.85;;;35.30;32.60;;;;;;4371185;32;20209;-37
2021/06/14 09:49:37;;;;;;;2.67;0.90;;;35.30;32.40;;;;;;4355377;32;20136;-38
2021/06/14 09:52:04;;;;;;;1.80;0.85;;;35.30;32.60;;;;;;4355066;32;20547;-38
2021/06/14 09:54:35;;;;;;;0.50;0.40;;;35.30;32.50;;;;;;4355581;32;20074;-38
2021/06/14 09:57:04;;;;;;;1.92;0.80;;;35.30;32.60;;;;;;4355281;32;20646;-38
2021/06/14 09:59:39;;;;;;;1.90;0.90;;;35.40;32.60;;;;;;4342994;32;20070;-37
2021/06/14 10:02:16;;;;;;;0.80;0.75;;;35.50;32.70;;;;;;4343939;32;20075;-38
2021/06/14 10:04:53;;;;;;;3.37;0.85;;;35.70;32.30;;;;;;4310520;33;20125;-40
2021/06/14 10:07:21;;;;;;;1.42;0.85;;;35.70;32.60;;;;;;4300489;33;20573;-45
2021/06/14 10:09:52;;;;;;;2.83;1.12;;;35.70;32.90;;;;;;4298889;33;20641;-37
2021/06/14 10:12:29;;;;;;;2.25;1.30;;;35.80;32.80;;;;;;4311241;33;20626;-39
2021/06/14 10:15:01;;;;;;;1.92;0.90;;;35.80;33.00;;;;;;4316078;33;20133;-39
2021/06/14 10:17:35;;;;;;;3.45;0.70;;;35.80;32.90;;;;;;4296538;33;20087;-38
2021/06/14 10:20:32;;;;;;;2.00;0.60;;;35.60;32.90;;;;;;4303780;33;20075;-38
2021/06/14 10:23:00;;;;;;;0.40;0.35;;;35.50;33.40;;;;;;4313392;33;20051;-37
2021/06/14 10:25:27;;;;;;;1.25;0.80;;;35.40;33.50;;;;;;4326291;33;20091;-38
2021/06/14 10:27:54;;;;;;;1.00;0.70;;;35.40;34.10;;;;;;4314211;33;20086;-38
2021/06/14 10:30:23;;;;;;;1.05;0.88;;;35.30;33.90;;;;;;4325579;33;20228;-39
2021/06/14 10:32:50;;;;;;;2.90;0.73;;;35.30;33.80;;;;;;4325492;33;20064;-39
2021/06/14 10:35:19;;;;;;;0.40;0.40;;;35.20;33.90;;;;;;4339701;32;20100;-37
2021/06/14 10:37:48;;;;;;;7.25;1.17;;;35.10;33.90;;;;;;4370032;32;20073;-39
2021/06/14 10:40:26;;;;;;;2.40;0.90;;;35.00;34.10;;;;;;4369874;32;20163;-37
2021/06/14 10:42:56;;;;;;;9.45;1.15;;;35.00;34.60;;;;;;4370105;32;20061;-38
2021/06/14 10:45:27;;;;;;;1.40;0.88;;;35.00;34.50;;;;;;4369807;32;20169;-38
2021/06/14 10:47:54;;;;;;;0.52;0.43;;;35.00;34.60;;;;;;4374273;32;20120;-38
2021/06/14 10:50:26;;;;;;;0.98;0.77;;;34.90;34.30;;;;;;4387464;32;20097;-38
2021/06/14 10:52:55;;;;;;;0.60;0.50;;;34.80;34.70;;;;;;4387836;32;20101;-37
2021/06/14 10:55:30;;;;;;;1.00;0.90;;;34.70;34.80;;;;;;4387401;32;20096;-39
2021/06/14 10:57:57;;;;;;;2.00;1.02;;;34.50;34.80;;;;;;4387992;32;20051;-38
2021/06/14 11:00:29;;;;;;;1.98;0.77;;;34.50;35.00;;;;;;4339787;32;20071;-38
2021/06/14 11:03:08;;;;;;;1.58;1.10;;;34.50;34.90;;;;;;4327941;33;20075;-38
2021/06/14 11:05:50;;;;;;;1.10;0.82;;;34.50;35.40;;;;;;4340353;33;20089;-38
2021/06/14 11:08:21;;;;;;;3.25;0.65;;;34.50;35.50;;;;;;4315558;32;20518;-38
2021/06/14 11:11:00;;;;;;;1.58;0.75;;;34.40;35.70;;;;;;4328033;32;20553;-38
2021/06/14 11:13:27;;;;;;;0.50;0.50;;;34.30;36.00;;;;;;4340153;32;20616;-38
2021/06/14 11:15:55;;;;;;;0.95;0.52;;;34.30;36.10;;;;;;4327708;33;20082;-38
2021/06/14 11:18:30;;;;;;;2.65;0.90;;;34.30;36.30;;;;;;4327866;33;20082;-37
2021/06/14 11:21:13;;;;;;;0.77;0.70;;;34.30;36.50;;;;;;4340464;32;20093;-37
2021/06/14 11:23:41;;;;;;;2.45;0.55;;;34.20;36.60;;;;;;4328774;33;20090;-38
2021/06/14 11:26:12;;;;;;;2.12;0.50;;;34.00;36.80;;;;;;4327679;33;20143;-38
2021/06/14 11:28:43;;;;;;;2.03;0.80;;;34.00;36.80;;;;;;4339957;32;20073;-38
2021/06/14 11:31:19;;;;;;;2.22;0.65;;;33.70;37.00;;;;;;4340129;33;20183;-37
2021/06/14 11:33:47;;;;;;;1.15;1.05;;;33.50;37.30;;;;;;4328347;33;20089;-38
2021/06/14 11:36:22;;;;;;;1.55;0.90;;;33.40;37.50;;;;;;4328196;33;20082;-38
2021/06/14 11:38:50;;;;;;;0.68;0.57;;;33.30;37.90;;;;;;4368600;32;20077;-39
2021/06/14 11:41:33;;;;;;;1.15;0.77;;;33.20;38.00;;;;;;4387513;32;20533;-38
2021/06/14 11:44:48;;;;;;;4.93;1.17;;;33.20;38.20;;;;;;4375720;32;20092;-37
2021/06/14 11:47:20;;;;;;;1.30;0.52;;;32.90;37.90;;;;;;4312897;33;20551;-38
2021/06/14 11:49:48;;;;;;;2.72;1.00;;;32.90;38.10;;;;;;4327324;33;20072;-38
2021/06/14 11:52:23;;;;;;;1.40;0.60;;;32.80;38.10;;;;;;4327512;33;20507;-38
2021/06/14 11:54:56;;;;;;;0.50;0.47;;;32.90;37.80;;;;;;4327421;33;20169;-38
2021/06/14 11:57:34;;;;;;;1.02;0.77;;;32.90;37.80;;;;;;4315229;33;20078;-38
2021/06/14 12:00:01;;;;;;;1.65;0.85;;;32.80;37.70;;;;;;4327749;33;20498;-37
2021/06/14 12:02:29;;;;;;;1.35;1.25;;;32.70;37.60;;;;;;4315227;33;20114;-38
2021/06/14 12:04:58;;;;;;;2.70;1.10;;;32.60;37.50;;;;;;4327581;33;20079;-38
2021/06/14 12:07:36;;;;;;;0.98;0.77;;;32.60;37.80;;;;;;4327448;33;20074;-39
2021/06/14 12:10:10;;;;;;;1.00;0.70;;;32.70;37.70;;;;;;4327656;33;20271;-38
2021/06/14 12:12:37;;;;;;;0.98;0.80;;;32.80;37.40;;;;;;4327451;33;20210;-37
2021/06/14 12:15:06;;;;;;;2.97;1.37;;;32.80;36.30;;;;;;4327546;33;20141;-38
2021/06/14 12:17:35;;;;;;;0.40;0.32;;;32.80;36.00;;;;;;4351188;32;20073;-38
2021/06/14 12:20:04;;;;;;;0.60;0.43;;;32.70;35.90;;;;;;4389557;32;20077;-38
2021/06/14 12:22:30;;;;;;;2.15;0.60;;;32.80;35.60;;;;;;4375884;32;20069;-37
2021/06/14 12:25:11;;;;;;;1.23;0.65;;;32.80;35.50;;;;;;4389547;32;20085;-38
2021/06/14 12:27:38;;;;;;;2.08;0.43;;;32.80;36.60;;;;;;4389394;32;20073;-41
2021/06/14 12:30:08;;;;;;;1.12;0.60;;;32.80;35.80;;;;;;4356391;32;20211;-38
2021/06/14 12:32:34;;;;;;;1.75;0.60;;;32.90;35.90;;;;;;4356787;32;20666;-41
2021/06/14 12:35:04;;;;;;;5.68;0.90;;;32.80;35.80;;;;;;4356574;32;20080;-37
2021/06/14 12:37:30;;;;;;;2.80;0.82;;;32.80;36.40;;;;;;4356767;32;20147;-38
2021/06/14 12:40:02;;;;;;;1.15;0.50;;;32.80;36.60;;;;;;4344221;32;20059;-38
2021/06/14 12:42:29;;;;;;;3.22;0.52;;;32.90;36.70;;;;;;4356232;32;20439;-37
2021/06/14 12:45:08;;;;;;;0.70;0.68;;;33.00;36.60;;;;;;4356635;32;20193;-37
2021/06/14 12:47:40;;;;;;;1.40;0.77;;;32.90;36.80;;;;;;4358643;32;20529;-40
2021/06/14 12:50:07;;;;;;;2.30;0.98;;;32.90;37.20;;;;;;4359399;32;20061;-38
2021/06/14 12:52:33;;;;;;;0.82;0.60;;;32.90;37.50;;;;;;4358389;32;20601;-38
2021/06/14 12:55:00;;;;;;;3.75;1.10;;;32.90;37.40;;;;;;4370517;32;20086;-38
2021/06/14 12:57:37;;;;;;;0.90;0.70;;;32.90;37.50;;;;;;4358730;32;20521;-38